Time;durP1;ratioP1;P1;durP2;ratioP2;P2;SDS_P1;SDS_P2;PMS_P1;PMS_P2;Temp;Humidity;BMP_temperature;BMP_pressure;BME280_temperature;BME280_humidity;BME280_pressure;Samples;Min_cycle;Max_cycle;Signal;HPM_P1;HPM_P2
2023/05/19 00:02:08;;;;;;;;;;;;;;;9.01;75.48;102629.63;5056869;28;1583;-74
2023/05/19 00:04:34;;;;;;;;;;;;;;;9.01;74.07;102630.47;5045114;28;1522;-75
2023/05/19 00:07:00;;;;;;;;;;;;;;;9.01;73.85;102625.28;5045811;28;1291;-74
2023/05/19 00:09:25;;;;;;;;;;;;;;;8.95;74.63;102625.56;5047444;28;1283;-74
2023/05/19 00:11:50;;;;;;;;;;;;;;;8.91;75.51;102633.53;5048008;28;1140;-74
2023/05/19 00:14:16;;;;;;;;;;;;;;;8.86;75.74;102631.16;5047420;28;1025;-74
2023/05/19 00:16:41;;;;;;;;;;;;;;;8.85;75.31;102629.47;5046972;28;1214;-75
2023/05/19 00:19:09;;;;;;;;;;;;;;;8.82;75.68;102624.44;5044323;28;1967;-76
2023/05/19 00:21:36;;;;;;;;;;;;;;;8.78;75.24;102620.31;5047869;28;1802;-75
2023/05/19 00:24:02;;;;;;;;;;;;;;;8.75;74.57;102623.88;5048345;28;1114;-75
2023/05/19 00:26:27;;;;;;;;;;;;;;;8.76;74.70;102619.53;5046026;28;1399;-74
2023/05/19 00:28:52;;;;;;;;;;;;;;;8.76;75.85;102614.34;5046489;28;1438;-75
2023/05/19 00:31:18;;;;;;;;;;;;;;;8.76;75.13;102609.19;5047041;28;1283;-75
2023/05/19 00:33:43;;;;;;;;;;;;;;;8.78;74.41;102603.03;5051122;28;1298;-74
2023/05/19 00:36:08;;;;;;;;;;;;;;;8.80;74.75;102608.13;5046566;28;1529;-75
2023/05/19 00:38:34;;;;;;;;;;;;;;;8.76;74.18;102609.19;5052465;28;1941;-75
2023/05/19 00:41:01;;;;;;;;;;;;;;;8.75;74.30;102602.34;5045304;28;1204;-78
2023/05/19 00:43:26;;;;;;;;;;;;;;;8.69;76.31;102592.25;5047209;28;1576;-76
2023/05/19 00:45:51;;;;;;;;;;;;;;;8.67;75.13;102601.84;5046620;28;1425;-75
2023/05/19 00:48:17;;;;;;;;;;;;;;;8.64;76.23;102594.22;5045682;28;1242;-76
2023/05/19 00:50:42;;;;;;;;;;;;;;;8.61;76.61;102594.38;5045587;28;1471;-74
2023/05/19 00:53:07;;;;;;;;;;;;;;;8.56;75.42;102596.31;5045895;28;1158;-75
2023/05/19 00:55:34;;;;;;;;;;;;;;;8.56;74.99;102596.31;5047228;28;1143;-75
2023/05/19 00:58:00;;;;;;;;;;;;;;;8.50;76.01;102598.28;5047346;28;1930;-74
2023/05/19 01:00:25;;;;;;;;;;;;;;;8.47;76.28;102593.22;5061650;28;1029;-75
2023/05/19 01:02:50;;;;;;;;;;;;;;;8.46;75.74;102596.72;5047100;28;1167;-74
2023/05/19 01:05:16;;;;;;;;;;;;;;;8.44;76.39;102598.53;5047228;28;1061;-74
2023/05/19 01:07:41;;;;;;;;;;;;;;;8.38;76.31;102604.00;5050196;28;1203;-75
2023/05/19 01:10:07;;;;;;;;;;;;;;;8.37;76.51;102607.50;5047201;28;1173;-74
2023/05/19 01:12:32;;;;;;;;;;;;;;;8.37;75.68;102596.28;5058428;28;1504;-74
2023/05/19 01:14:57;;;;;;;;;;;;;;;8.37;76.92;102597.16;5047136;28;1169;-76
2023/05/19 01:17:28;;;;;;;;;;;;;;;8.35;76.24;102596.31;5046439;28;1220;-74
2023/05/19 01:20:06;;;;;;;;;;;;;;;8.31;77.18;102602.53;5045481;28;1902;-74
2023/05/19 01:22:32;;;;;;;;;;;;;;;8.30;78.61;102595.69;5044119;28;1349;-76
2023/05/19 01:24:57;;;;;;;;;;;;;;;8.24;77.96;102595.94;5045057;28;1310;-75
2023/05/19 01:27:28;;;;;;;;;;;;;;;8.23;77.88;102599.44;5048020;28;1235;-74
2023/05/19 01:30:12;;;;;;;;;;;;;;;8.22;77.42;102592.59;5050270;28;1208;-74
2023/05/19 01:32:39;;;;;;;;;;;;;;;8.18;78.78;102596.22;5045097;28;1254;-74
2023/05/19 01:35:06;;;;;;;;;;;;;;;8.18;78.64;102597.06;5049536;28;1240;-75
2023/05/19 01:37:32;;;;;;;;;;;;;;;8.12;77.57;102586.13;5049841;28;1553;-75
2023/05/19 01:39:57;;;;;;;;;;;;;;;8.16;77.82;102595.44;5049390;28;1910;-74
2023/05/19 01:42:24;;;;;;;;;;;;;;;8.15;77.96;102591.19;5051109;28;1505;-74
2023/05/19 01:44:50;;;;;;;;;;;;;;;8.12;78.41;102586.97;5054296;28;1533;-75
2023/05/19 01:47:15;;;;;;;;;;;;;;;8.10;78.74;102591.38;5048859;28;1219;-74
2023/05/19 01:49:40;;;;;;;;;;;;;;;8.10;78.48;102587.97;5050028;28;1065;-76
2023/05/19 01:52:06;;;;;;;;;;;;;;;8.12;78.59;102591.31;5050188;28;1311;-75
2023/05/19 01:54:31;;;;;;;;;;;;;;;8.09;79.84;102581.13;5050261;28;1529;-74
2023/05/19 01:57:10;;;;;;;;;;;;;;;8.03;78.67;102583.94;5049786;28;1695;-74
2023/05/19 01:59:35;;;;;;;;;;;;;;;8.02;79.26;102577.94;5051638;28;1894;-74
2023/05/19 02:02:03;;;;;;;;;;;;;;;8.03;78.43;102578.78;5048188;28;1187;-75
2023/05/19 02:04:39;;;;;;;;;;;;;;;8.01;78.36;102578.00;5056117;28;1400;-75
2023/05/19 02:07:04;;;;;;;;;;;;;;;7.96;79.19;102580.78;5051580;28;1231;-75
2023/05/19 02:09:49;;;;;;;;;;;;;;;7.93;78.99;102576.59;5049487;28;1271;-74
2023/05/19 02:12:27;;;;;;;;;;;;;;;7.89;80.53;102575.03;5049476;28;1212;-74
2023/05/19 02:15:06;;;;;;;;;;;;;;;7.87;79.24;102582.03;5048088;28;1109;-74
2023/05/19 02:17:35;;;;;;;;;;;;;;;7.83;79.45;102580.47;5052382;28;1276;-75
2023/05/19 02:20:00;;;;;;;;;;;;;;;7.79;80.69;102578.91;5056872;28;1991;-74
2023/05/19 02:22:25;;;;;;;;;;;;;;;7.77;80.89;102579.88;5049070;28;1430;-75
2023/05/19 02:24:50;;;;;;;;;;;;;;;7.74;79.82;102575.66;5043286;28;1268;-75
2023/05/19 02:27:16;;;;;;;;;;;;;;;7.76;79.93;102581.63;5047085;28;1677;-76
2023/05/19 02:29:41;;;;;;;;;;;;;;;7.72;79.80;102580.06;5044478;28;1526;-74
2023/05/19 02:32:06;;;;;;;;;;;;;;;7.69;80.01;102580.22;5044151;28;1611;-74
2023/05/19 02:34:31;;;;;;;;;;;;;;;7.66;81.40;102582.91;5049195;28;1236;-73
2023/05/19 02:36:57;;;;;;;;;;;;;;;7.62;80.65;102571.03;5047281;28;1250;-74
2023/05/19 02:39:22;;;;;;;;;;;;;;;7.59;81.24;102572.00;5051923;28;1890;-74
2023/05/19 02:41:47;;;;;;;;;;;;;;;7.59;79.73;102558.25;5049005;28;1093;-75
2023/05/19 02:44:12;;;;;;;;;;;;;;;7.60;80.99;102562.50;5063978;28;1560;-75
2023/05/19 02:46:38;;;;;;;;;;;;;;;7.60;80.40;102562.50;5056482;28;1625;-74
2023/05/19 02:49:03;;;;;;;;;;;;;;;7.61;80.26;102546.94;5047624;28;1337;-74
2023/05/19 02:51:28;;;;;;;;;;;;;;;7.61;81.06;102553.84;5051271;28;1111;-74
2023/05/19 02:53:53;;;;;;;;;;;;;;;7.58;81.59;102548.84;5048455;28;1305;-74
2023/05/19 02:56:20;;;;;;;;;;;;;;;7.59;81.12;102560.84;5054971;28;1325;-74
2023/05/19 02:58:45;;;;;;;;;;;;;;;7.59;81.37;102550.50;5045614;28;1894;-74
2023/05/19 03:01:10;;;;;;;;;;;;;;;7.58;81.01;102549.66;5047307;28;1269;-74
2023/05/19 03:03:36;;;;;;;;;;;;;;;7.57;81.20;102557.44;5048446;28;1084;-75
2023/05/19 03:06:01;;;;;;;;;;;;;;;7.52;80.56;102556.84;5048806;28;1116;-74
2023/05/19 03:08:26;;;;;;;;;;;;;;;7.53;80.75;102553.34;5047581;28;1192;-74
2023/05/19 03:10:52;;;;;;;;;;;;;;;7.51;82.50;102552.53;5048547;28;1135;-74
2023/05/19 03:13:17;;;;;;;;;;;;;;;7.49;81.23;102554.38;5047747;28;1593;-74
2023/05/19 03:15:43;;;;;;;;;;;;;;;7.49;80.65;102549.19;5048608;28;1175;-77
2023/05/19 03:18:10;;;;;;;;;;;;;;;7.47;80.90;102551.00;5046427;28;2006;-74
2023/05/19 03:20:36;;;;;;;;;;;;;;;7.45;81.95;102549.34;5048687;28;1104;-74
2023/05/19 03:23:02;;;;;;;;;;;;;;;7.44;80.88;102549.38;5062930;28;1251;-74
2023/05/19 03:25:27;;;;;;;;;;;;;;;7.42;82.38;102554.63;5046887;28;1529;-74
2023/05/19 03:27:52;;;;;;;;;;;;;;;7.41;81.26;102547.78;5047586;28;1173;-74
2023/05/19 03:30:17;;;;;;;;;;;;;;;7.40;81.68;102546.09;5046987;28;1178;-75
2023/05/19 03:32:43;;;;;;;;;;;;;;;7.38;81.72;102547.88;5047510;28;1580;-77
2023/05/19 03:35:08;;;;;;;;;;;;;;;7.37;81.34;102546.22;5048427;28;1219;-75
2023/05/19 03:37:33;;;;;;;;;;;;;;;7.37;82.14;102551.38;5052380;28;1084;-74
2023/05/19 03:39:59;;;;;;;;;;;;;;;7.37;81.66;102553.94;5047403;28;1898;-73
2023/05/19 03:42:24;;;;;;;;;;;;;;;7.36;82.29;102554.88;5046175;28;1204;-75
2023/05/19 03:44:49;;;;;;;;;;;;;;;7.35;81.52;102553.19;5047793;28;1352;-76
2023/05/19 03:47:14;;;;;;;;;;;;;;;7.35;81.91;102563.50;5047432;28;1276;-74
2023/05/19 03:49:40;;;;;;;;;;;;;;;7.32;81.68;102553.28;5046947;28;1498;-74
2023/05/19 03:52:05;;;;;;;;;;;;;;;7.32;82.25;102558.47;5045815;28;1193;-74
2023/05/19 03:54:30;;;;;;;;;;;;;;;7.32;81.23;102557.63;5046445;28;1238;-76
2023/05/19 03:56:55;;;;;;;;;;;;;;;7.32;81.15;102563.63;5047987;28;1287;-76
2023/05/19 03:59:22;;;;;;;;;;;;;;;7.30;81.76;102562.00;5047289;28;1910;-77
2023/05/19 04:01:47;;;;;;;;;;;;;;;7.30;81.62;102562.84;5046489;28;1356;-75
2023/05/19 04:04:12;;;;;;;;;;;;;;;7.30;81.95;102555.13;5049096;28;1493;-74
2023/05/19 04:06:38;;;;;;;;;;;;;;;7.29;81.99;102563.75;5049446;28;1303;-76
2023/05/19 04:09:10;;;;;;;;;;;;;;;7.28;81.43;102556.91;5059515;28;1440;-76
2023/05/19 04:11:36;;;;;;;;;;;;;;;7.27;82.18;102560.38;5047065;28;1214;-74
2023/05/19 04:14:01;;;;;;;;;;;;;;;7.25;82.81;102558.78;5048877;28;1481;-75
2023/05/19 04:16:26;;;;;;;;;;;;;;;7.23;82.01;102564.00;5035923;28;1560;-75
2023/05/19 04:18:51;;;;;;;;;;;;;;;7.22;82.48;102559.72;5046892;28;1906;-75
2023/05/19 04:21:16;;;;;;;;;;;;;;;7.21;83.77;102570.94;5053436;28;1301;-74
2023/05/19 04:23:42;;;;;;;;;;;;;;;7.19;82.52;102568.44;5051396;28;966;-74
2023/05/19 04:26:07;;;;;;;;;;;;;;;7.19;82.49;102568.44;5047690;28;1349;-74
2023/05/19 04:28:35;;;;;;;;;;;;;;;7.20;83.18;102566.69;5047063;28;1240;-74
2023/05/19 04:31:00;;;;;;;;;;;;;;;7.22;82.83;102567.47;5051874;28;1081;-74
2023/05/19 04:33:27;;;;;;;;;;;;;;;7.23;82.64;102558.84;5047781;28;1510;-74
2023/05/19 04:35:53;;;;;;;;;;;;;;;7.24;83.52;102570.84;5046679;28;1529;-76
2023/05/19 04:38:18;;;;;;;;;;;;;;;7.25;83.34;102562.19;5046454;28;1963;-75
2023/05/19 04:40:44;;;;;;;;;;;;;;;7.25;83.07;102559.63;5047295;28;1089;-75
2023/05/19 04:43:10;;;;;;;;;;;;;;;7.27;83.06;102560.38;5047910;28;1339;-75
2023/05/19 04:45:36;;;;;;;;;;;;;;;7.29;83.09;102553.44;5045866;28;1187;-75
2023/05/19 04:48:01;;;;;;;;;;;;;;;7.32;83.61;102560.19;5045456;28;1317;-74
2023/05/19 04:50:28;;;;;;;;;;;;;;;7.34;83.51;102559.25;5047174;28;1011;-74
2023/05/19 04:52:53;;;;;;;;;;;;;;;7.38;83.59;102562.53;5064362;28;1284;-75
2023/05/19 04:55:19;;;;;;;;;;;;;;;7.40;84.87;102559.00;5047354;28;1410;-75
2023/05/19 04:57:44;;;;;;;;;;;;;;;7.42;84.21;102562.34;5045476;28;1234;-75
2023/05/19 05:00:12;;;;;;;;;;;;;;;7.45;84.34;102559.66;5054426;28;1953;-74
2023/05/19 05:02:38;;;;;;;;;;;;;;;7.50;83.67;102561.19;5050654;28;1166;-74
2023/05/19 05:05:04;;;;;;;;;;;;;;;7.52;83.82;102564.56;5050668;28;1202;-74
2023/05/19 05:07:29;;;;;;;;;;;;;;;7.57;83.83;102572.94;5052022;28;1351;-76
2023/05/19 05:09:54;;;;;;;;;;;;;;;7.61;84.16;102570.19;5050786;28;1260;-75
2023/05/19 05:12:20;;;;;;;;;;;;;;;7.66;84.31;102580.31;5050780;28;1189;-75
2023/05/19 05:14:45;;;;;;;;;;;;;;;7.70;84.41;102577.56;5049928;28;1204;-74
2023/05/19 05:17:12;;;;;;;;;;;;;;;7.74;85.08;102565.34;5062252;28;1296;-74
2023/05/19 05:19:37;;;;;;;;;;;;;;;7.80;86.07;102569.41;5046619;28;1906;-73
2023/05/19 05:22:03;;;;;;;;;;;;;;;7.82;85.22;102572.78;5050334;28;1107;-74
2023/05/19 05:24:28;;;;;;;;;;;;;;;7.86;85.65;102570.03;5054295;28;1579;-74
2023/05/19 05:26:53;;;;;;;;;;;;;;;7.91;86.54;102578.41;5047953;28;1190;-75
2023/05/19 05:29:19;;;;;;;;;;;;;;;7.95;85.70;102574.78;5050631;28;1474;-74
2023/05/19 05:31:44;;;;;;;;;;;;;;;8.01;86.59;102585.75;5049921;28;1101;-75
2023/05/19 05:34:10;;;;;;;;;;;;;;;8.07;86.27;102588.09;5046839;28;1454;-74
2023/05/19 05:36:35;;;;;;;;;;;;;;;8.12;86.43;102580.97;5050816;28;1249;-74
2023/05/19 05:39:01;;;;;;;;;;;;;;;8.19;86.64;102580.63;5051308;28;1906;-76
2023/05/19 05:41:28;;;;;;;;;;;;;;;8.25;85.99;102579.53;5050044;28;1173;-76
2023/05/19 05:43:53;;;;;;;;;;;;;;;8.31;85.40;102584.44;5049107;28;1392;-74
2023/05/19 05:46:18;;;;;;;;;;;;;;;8.36;85.36;102579.94;5050272;28;1694;-74
2023/05/19 05:48:44;;;;;;;;;;;;;;;8.43;84.60;102576.19;5049909;28;1561;-79
2023/05/19 05:51:09;;;;;;;;;;;;;;;8.49;85.08;102575.06;5050346;28;1091;-74
2023/05/19 05:53:39;;;;;;;;;;;;;;;8.55;85.51;102569.63;5049847;28;1329;-75
2023/05/19 05:56:04;;;;;;;;;;;;;;;8.63;85.16;102569.25;5049641;28;952;-74
2023/05/19 05:58:31;;;;;;;;;;;;;;;8.75;85.35;102573.88;5050284;28;1894;-74
2023/05/19 06:00:57;;;;;;;;;;;;;;;8.78;85.27;102571.16;5047848;28;1548;-75
2023/05/19 06:03:23;;;;;;;;;;;;;;;8.85;84.20;102572.56;5047784;28;1211;-75
2023/05/19 06:05:48;;;;;;;;;;;;;;;8.91;84.86;102577.44;5049239;28;1394;-75
2023/05/19 06:08:13;;;;;;;;;;;;;;;8.97;84.59;102571.97;5051922;28;1725;-74
2023/05/19 06:10:40;;;;;;;;;;;;;;;9.04;84.42;102575.94;5049502;28;1204;-75
2023/05/19 06:13:05;;;;;;;;;;;;;;;9.13;84.01;102576.44;5048231;28;1044;-74
2023/05/19 06:15:30;;;;;;;;;;;;;;;9.21;84.38;102582.06;5053774;28;1564;-74
2023/05/19 06:17:56;;;;;;;;;;;;;;;9.29;84.27;102572.22;5047844;28;1227;-75
2023/05/19 06:20:21;;;;;;;;;;;;;;;9.36;83.63;102573.59;5049281;28;1961;-75
2023/05/19 06:22:46;;;;;;;;;;;;;;;9.43;83.23;102574.94;5051367;28;1228;-74
2023/05/19 06:25:12;;;;;;;;;;;;;;;9.50;82.86;102573.72;5047640;28;1268;-75
2023/05/19 06:27:37;;;;;;;;;;;;;;;9.53;82.28;102575.34;5052064;28;1056;-75
2023/05/19 06:30:03;;;;;;;;;;;;;;;9.58;82.39;102574.22;5047663;28;1290;-74
2023/05/19 06:32:28;;;;;;;;;;;;;;;9.68;82.15;102568.56;5047802;28;1298;-74
2023/05/19 06:34:54;;;;;;;;;;;;;;;9.76;81.57;102576.81;5049205;28;1144;-76
2023/05/19 06:37:20;;;;;;;;;;;;;;;9.85;82.17;102571.13;5049296;28;1208;-76
2023/05/19 06:39:45;;;;;;;;;;;;;;;9.93;81.27;102569.00;5051113;28;1894;-74
2023/05/19 06:42:11;;;;;;;;;;;;;;;10.02;81.52;102572.88;5052403;28;1159;-75
2023/05/19 06:44:36;;;;;;;;;;;;;;;10.10;81.00;102576.75;5055259;28;1304;-75
2023/05/19 06:47:01;;;;;;;;;;;;;;;10.21;81.32;102583.16;5050273;28;1060;-74
2023/05/19 06:49:28;;;;;;;;;;;;;;;10.31;80.81;102576.56;5047122;28;1314;-76
2023/05/19 06:51:53;;;;;;;;;;;;;;;10.43;80.57;102573.34;5048676;28;1005;-74
2023/05/19 06:54:18;;;;;;;;;;;;;;;10.54;79.76;102571.00;5049586;28;1052;-74
2023/05/19 06:56:44;;;;;;;;;;;;;;;10.63;80.03;102574.88;5047839;28;1359;-75
2023/05/19 06:59:09;;;;;;;;;;;;;;;10.76;79.03;102580.25;5048718;28;1906;-75
2023/05/19 07:01:34;;;;;;;;;;;;;;;10.81;78.81;102573.88;5053759;28;1150;-74
2023/05/19 07:04:00;;;;;;;;;;;;;;;10.89;78.27;102583.84;5050166;28;1119;-74
2023/05/19 07:06:25;;;;;;;;;;;;;;;11.04;78.81;102580.41;5049273;28;1175;-74
2023/05/19 07:08:50;;;;;;;;;;;;;;;11.11;77.25;102579.13;5058400;28;1432;-73
2023/05/19 07:11:15;;;;;;;;;;;;;;;11.19;77.13;102583.09;5047269;28;1998;-77
2023/05/19 07:13:41;;;;;;;;;;;;;;;11.28;76.59;102577.34;5051542;28;1603;-73
2023/05/19 07:16:06;;;;;;;;;;;;;;;11.39;76.45;102582.78;5046393;28;1212;-74
2023/05/19 07:18:31;;;;;;;;;;;;;;;11.49;75.70;102581.34;5047112;28;1914;-73
2023/05/19 07:20:57;;;;;;;;;;;;;;;11.52;74.53;102575.94;5048679;28;1355;-73
2023/05/19 07:23:22;;;;;;;;;;;;;;;11.59;74.35;102582.47;5050148;28;1236;-75
2023/05/19 07:25:48;;;;;;;;;;;;;;;11.65;74.30;102587.31;5047963;28;1525;-73
2023/05/19 07:28:13;;;;;;;;;;;;;;;11.74;72.53;102585.94;5048166;28;1454;-74
2023/05/19 07:30:38;;;;;;;;;;;;;;;11.81;73.50;102583.81;5048299;28;1230;-74
2023/05/19 07:33:04;;;;;;;;;;;;;;;11.84;72.27;102574.13;5053534;28;1204;-73
2023/05/19 07:35:29;;;;;;;;;;;;;;;11.93;71.99;102576.19;5048472;28;1525;-74
2023/05/19 07:37:54;;;;;;;;;;;;;;;12.04;72.52;102575.50;5047698;28;1252;-81
2023/05/19 07:40:20;;;;;;;;;;;;;;;12.13;72.04;102577.56;5048142;28;1902;-82
2023/05/19 07:42:45;;;;;;;;;;;;;;;12.19;71.70;102576.38;5047620;28;1565;-77
2023/05/19 07:45:10;;;;;;;;;;;;;;;12.31;71.93;102574.78;5047323;28;1399;-82
2023/05/19 07:47:35;;;;;;;;;;;;;;;12.40;70.55;102569.03;5047050;28;1196;-80
2023/05/19 07:50:01;;;;;;;;;;;;;;;12.49;70.86;102568.44;5045065;28;1517;-81
2023/05/19 07:52:26;;;;;;;;;;;;;;;12.53;69.97;102569.09;5047880;28;1042;-82
2023/05/19 07:54:51;;;;;;;;;;;;;;;12.56;69.53;102574.97;5047799;28;1601;-80
2023/05/19 07:57:17;;;;;;;;;;;;;;;12.68;70.30;102569.00;5038045;28;1497;-82
2023/05/19 07:59:43;;;;;;;;;;;;;;;12.83;70.04;102566.34;5044432;28;1977;-80
2023/05/19 08:02:08;;;;;;;;;;;;;;;12.94;69.03;102561.28;5046720;28;1371;-80
2023/05/19 08:04:33;;;;;;;;;;;;;;;13.03;69.23;102565.94;5060886;28;1418;-81
2023/05/19 08:06:58;;;;;;;;;;;;;;;13.15;67.08;102567.72;5049684;28;1190;-81
2023/05/19 08:09:23;;;;;;;;;;;;;;;13.23;66.67;102557.66;5053992;28;1348;-82
2023/05/19 08:11:49;;;;;;;;;;;;;;;13.28;67.17;102563.41;5064393;28;1250;-80
2023/05/19 08:14:14;;;;;;;;;;;;;;;13.36;66.63;102554.25;5047911;28;1200;-84
2023/05/19 08:16:41;;;;;;;;;;;;;;;13.49;66.90;102560.34;5053135;28;1509;-83
2023/05/19 08:19:06;;;;;;;;;;;;;;;13.63;66.47;102552.44;5046781;28;1953;-82
2023/05/19 08:21:35;;;;;;;;;;;;;;;13.73;64.22;102550.88;5047146;28;1077;-81
2023/05/19 08:24:00;;;;;;;;;;;;;;;13.88;65.94;102561.19;5048138;28;1287;-81
2023/05/19 08:26:26;;;;;;;;;;;;;;;14.04;64.24;102556.59;5045646;28;1397;-80
2023/05/19 08:28:51;;;;;;;;;;;;;;;14.16;63.18;102553.16;5046206;28;1340;-84
2023/05/19 08:31:17;;;;;;;;;;;;;;;14.26;64.88;102546.34;5059064;28;1282;-81
2023/05/19 08:33:42;;;;;;;;;;;;;;;14.40;64.30;102548.03;5046030;28;1406;-80
2023/05/19 08:36:07;;;;;;;;;;;;;;;14.53;64.12;102542.78;5054640;28;1197;-82
2023/05/19 08:38:32;;;;;;;;;;;;;;;14.66;62.77;102543.59;5051346;28;1957;-83
2023/05/19 08:40:58;;;;;;;;;;;;;;;14.76;63.04;102539.38;5050974;28;1253;-82
2023/05/19 08:43:23;;;;;;;;;;;;;;;14.80;61.35;102530.38;5049684;28;1171;-82
2023/05/19 08:45:49;;;;;;;;;;;;;;;14.82;62.45;102538.94;5051041;28;1095;-83
2023/05/19 08:48:15;;;;;;;;;;;;;;;14.88;62.29;102538.47;5065874;28;1380;-81
2023/05/19 08:50:43;;;;;;;;;;;;;;;14.93;61.79;102524.25;5051689;28;1099;-83
2023/05/19 08:53:22;;;;;;;;;;;;;;;14.97;59.38;102520.47;5051114;28;1210;-80
2023/05/19 08:55:53;;;;;;;;;;;;;;;15.02;60.46;102528.78;5050560;28;1217;-82
2023/05/19 08:58:20;;;;;;;;;;;;;;;15.06;60.68;102520.63;5053369;28;1918;-84
2023/05/19 09:00:46;;;;;;;;;;;;;;;15.09;60.85;102514.34;5051527;28;1068;-84
2023/05/19 09:03:12;;;;;;;;;;;;;;;15.13;58.52;102515.78;5065831;28;1347;-83
2023/05/19 09:05:37;;;;;;;;;;;;;;;15.08;56.67;102512.66;5050688;28;1175;-83
2023/05/19 09:08:03;;;;;;;;;;;;;;;15.08;57.40;102517.88;5050567;28;1157;-85
2023/05/19 09:10:28;;;;;;;;;;;;;;;15.16;57.84;102517.34;5054728;28;1313;-84
2023/05/19 09:12:54;;;;;;;;;;;;;;;15.21;58.20;102518.66;5053087;28;1216;-83
2023/05/19 09:15:19;;;;;;;;;;;;;;;15.26;57.76;102511.31;5044958;28;1738;-82
2023/05/19 09:17:46;;;;;;;;;;;;;;;15.25;55.25;102514.84;5049800;28;1259;-85
2023/05/19 09:20:12;;;;;;;;;;;;;;;15.25;56.27;102508.78;5050140;28;1969;-83
2023/05/19 09:22:41;;;;;;;;;;;;;;;15.19;54.01;102498.81;5050649;28;1283;-84
2023/05/19 09:25:16;;;;;;;;;;;;;;;15.22;53.36;102504.66;5051877;28;1146;-84
2023/05/19 09:27:41;;;;;;;;;;;;;;;15.26;57.16;102500.88;5049181;28;1300;-83
2023/05/19 09:30:08;;;;;;;;;;;;;;;15.37;56.10;102503.50;5050291;28;1216;-85
2023/05/19 09:32:34;;;;;;;;;;;;;;;15.45;53.94;102494.25;5059280;28;1279;-83
2023/05/19 09:35:01;;;;;;;;;;;;;;;15.50;54.33;102492.13;5066697;28;1196;-80
2023/05/19 09:37:26;;;;;;;;;;;;;;;15.59;54.34;102501.88;5048656;28;1553;-82
2023/05/19 09:39:52;;;;;;;;;;;;;;;15.57;54.03;102494.13;5073197;28;1897;-81
2023/05/19 09:42:27;;;;;;;;;;;;;;;15.56;52.45;102491.66;5049288;28;1557;-81
2023/05/19 09:45:00;;;;;;;;;;;;;;;15.54;51.91;102490.91;5048659;28;1328;-81
2023/05/19 09:47:26;;;;;;;;;;;;;;;15.57;53.90;102495.94;5044231;28;1073;-83
2023/05/19 09:49:52;;;;;;;;;;;;;;;15.67;53.40;102494.31;5050055;28;1100;-85
2023/05/19 09:52:17;;;;;;;;;;;;;;;15.84;54.09;102495.63;5054207;28;1122;-83
2023/05/19 09:54:43;;;;;;;;;;;;;;;16.00;52.74;102506.59;5049426;28;1219;-83
2023/05/19 09:57:09;;;;;;;;;;;;;;;16.09;52.20;102505.84;5050764;28;1131;-83
2023/05/19 09:59:34;;;;;;;;;;;;;;;16.16;50.49;102493.09;5049223;28;1913;-82
2023/05/19 10:02:00;;;;;;;;;;;;;;;16.26;51.88;102496.66;5049243;28;1600;-84
2023/05/19 10:04:26;;;;;;;;;;;;;;;16.38;52.43;102495.69;5049111;28;1035;-80
2023/05/19 10:06:52;;;;;;;;;;;;;;;16.29;51.34;102499.06;5050129;28;1214;-82
2023/05/19 10:09:20;;;;;;;;;;;;;;;16.22;47.54;102479.53;5047926;28;1102;-80
2023/05/19 10:11:46;;;;;;;;;;;;;;;16.26;49.18;102486.19;5049633;28;1151;-82
2023/05/19 10:14:11;;;;;;;;;;;;;;;16.34;49.63;102483.78;5051095;28;1405;-83
2023/05/19 10:16:37;;;;;;;;;;;;;;;16.49;50.37;102483.53;5071098;28;1349;-83
2023/05/19 10:19:03;;;;;;;;;;;;;;;16.51;49.80;102489.47;5050921;28;1937;-86
2023/05/19 10:21:28;;;;;;;;;;;;;;;16.60;49.64;102486.13;5055308;28;1259;-83
2023/05/19 10:23:53;;;;;;;;;;;;;;;16.66;49.97;102483.00;5049569;28;1275;-83
2023/05/19 10:26:20;;;;;;;;;;;;;;;16.69;45.70;102478.34;5049715;28;1141;-84
2023/05/19 10:28:46;;;;;;;;;;;;;;;16.73;48.48;102481.56;5048304;28;1203;-83
2023/05/19 10:31:15;;;;;;;;;;;;;;;16.80;48.43;102480.09;5053394;28;1128;-87
2023/05/19 10:33:47;;;;;;;;;;;;;;;16.88;47.78;102472.47;5049303;28;1112;-87
2023/05/19 10:36:31;;;;;;;;;;;;;;;16.95;48.47;102473.63;5048304;28;1240;-88
2023/05/19 10:39:06;;;;;;;;;;;;;;;17.06;48.62;102477.16;5049394;28;1965;-87
2023/05/19 10:41:48;;;;;;;;;;;;;;;17.08;47.85;102467.34;5043913;28;1196;-87
2023/05/19 10:44:13;;;;;;;;;;;;;;;17.15;48.06;102468.53;5047896;28;1077;-84
2023/05/19 10:46:39;;;;;;;;;;;;;;;17.30;48.39;102472.47;5047062;28;1549;-85
2023/05/19 10:49:06;;;;;;;;;;;;;;;17.36;46.19;102471.13;5046091;28;1329;-85
2023/05/19 10:51:32;;;;;;;;;;;;;;;17.38;46.94;102471.84;5047267;28;1131;-87
2023/05/19 10:53:58;;;;;;;;;;;;;;;17.43;47.74;102473.13;5049118;28;1007;-84
2023/05/19 10:56:32;;;;;;;;;;;;;;;17.49;46.56;102467.34;5049574;28;1100;-86
2023/05/19 10:58:57;;;;;;;;;;;;;;;17.49;47.33;102462.09;5049940;28;1967;-84
2023/05/19 11:01:29;;;;;;;;;;;;;;;17.45;45.28;102465.94;5048856;28;1206;-86
2023/05/19 11:03:55;;;;;;;;;;;;;;;17.29;46.18;102464.75;5043215;28;1155;-78
2023/05/19 11:06:31;;;;;;;;;;;;;;;17.25;46.12;102453.66;5044639;28;1054;-81
2023/05/19 11:09:00;;;;;;;;;;;;;;;17.31;47.19;102463.63;5044022;28;1179;-83
2023/05/19 11:11:41;;;;;;;;;;;;;;;17.45;47.65;102458.06;5046934;28;1282;-85
2023/05/19 11:14:09;;;;;;;;;;;;;;;17.61;45.45;102459.41;5047490;28;1438;-86
2023/05/19 11:16:34;;;;;;;;;;;;;;;17.66;44.17;102462.44;5048751;28;1137;-86
2023/05/19 11:19:00;;;;;;;;;;;;;;;17.55;44.13;102467.75;5046820;28;1894;-86
2023/05/19 11:21:45;;;;;;;;;;;;;;;17.44;46.48;102461.66;5062527;28;1187;-84
2023/05/19 11:24:30;;;;;;;;;;;;;;;17.46;47.16;102454.47;5061849;28;1329;-87
2023/05/19 11:26:56;;;;;;;;;;;;;;;17.52;46.75;102456.56;5046056;28;1173;-82
2023/05/19 11:29:21;;;;;;;;;;;;;;;17.59;45.94;102456.06;5048361;28;1321;-85
2023/05/19 11:31:46;;;;;;;;;;;;;;;17.55;45.21;102454.66;5047699;28;1518;-84
2023/05/19 11:34:12;;;;;;;;;;;;;;;17.51;46.15;102454.09;5049648;28;1163;-85
2023/05/19 11:36:38;;;;;;;;;;;;;;;17.60;47.09;102457.72;5046358;28;1325;-85
2023/05/19 11:39:04;;;;;;;;;;;;;;;17.69;45.55;102454.31;5045694;28;1906;-83
2023/05/19 11:41:30;;;;;;;;;;;;;;;17.84;45.68;102442.53;5051796;28;1216;-86
2023/05/19 11:43:55;;;;;;;;;;;;;;;17.96;45.01;102441.47;5047712;28;1230;-81
2023/05/19 11:46:21;;;;;;;;;;;;;;;18.07;44.35;102440.53;5046836;28;1217;-86
2023/05/19 11:48:46;;;;;;;;;;;;;;;18.14;44.45;102436.38;5045889;28;1457;-86
2023/05/19 11:51:11;;;;;;;;;;;;;;;18.17;42.78;102440.53;5058735;28;1434;-87
2023/05/19 11:53:37;;;;;;;;;;;;;;;18.14;43.66;102446.06;5058920;28;1277;-87
2023/05/19 11:56:03;;;;;;;;;;;;;;;18.17;44.73;102435.28;5058169;28;1227;-88
2023/05/19 11:58:28;;;;;;;;;;;;;;;18.11;42.27;102435.81;5047582;28;1890;-83
2023/05/19 12:00:53;;;;;;;;;;;;;;;18.14;42.93;102440.81;5047984;28;1033;-86
2023/05/19 12:03:26;;;;;;;;;;;;;;;18.11;41.51;102434.00;5051435;28;1108;-88
2023/05/19 12:05:52;;;;;;;;;;;;;;;17.99;41.46;102438.53;5046266;28;1446;-83
2023/05/19 12:08:17;;;;;;;;;;;;;;;17.97;42.99;102424.72;5049127;28;1049;-86
2023/05/19 12:10:42;;;;;;;;;;;;;;;18.08;43.13;102430.84;5048073;28;1100;-86
2023/05/19 12:13:08;;;;;;;;;;;;;;;18.16;42.19;102431.00;5045192;28;1207;-85
2023/05/19 12:15:33;;;;;;;;;;;;;;;18.18;42.68;102421.16;5045347;28;1309;-86
2023/05/19 12:18:00;;;;;;;;;;;;;;;18.22;42.85;102422.56;5045137;28;1500;-79
2023/05/19 12:20:27;;;;;;;;;;;;;;;18.25;42.16;102417.06;5044839;28;1975;-81
2023/05/19 12:22:56;;;;;;;;;;;;;;;18.24;42.68;102415.41;5050407;28;1197;-82
2023/05/19 12:25:22;;;;;;;;;;;;;;;18.35;41.64;102417.03;5051878;28;1201;-85
2023/05/19 12:27:48;;;;;;;;;;;;;;;18.26;41.18;102423.97;5053058;28;1209;-82
2023/05/19 12:30:14;;;;;;;;;;;;;;;18.20;40.43;102419.25;5050369;28;989;-84
2023/05/19 12:32:39;;;;;;;;;;;;;;;18.23;40.67;102424.22;5045673;28;1377;-83
2023/05/19 12:35:05;;;;;;;;;;;;;;;18.27;41.30;102421.19;5050474;28;1009;-86
2023/05/19 12:37:36;;;;;;;;;;;;;;;18.37;41.81;102431.72;5046774;28;1210;-85
2023/05/19 12:40:02;;;;;;;;;;;;;;;18.41;40.28;102412.09;5049746;28;1886;-85
2023/05/19 12:42:32;;;;;;;;;;;;;;;18.42;41.14;102419.00;5059252;28;1294;-84
2023/05/19 12:44:57;;;;;;;;;;;;;;;18.42;40.50;102412.91;5049219;28;1314;-86
2023/05/19 12:47:29;;;;;;;;;;;;;;;18.37;39.45;102412.50;5045318;28;1315;-84
2023/05/19 12:50:01;;;;;;;;;;;;;;;18.33;39.96;102409.31;5046623;28;1220;-83